sensor_id;sensor_type;location;lat;lon;timestamp;P1;durP1;ratioP1;P2;durP2;ratioP2
45936;SDS011;31649;46.510;6.498;2023-04-03T06:04:37;45.90;;;7.35;;
45936;SDS011;31649;46.510;6.498;2023-04-03T06:07:04;91.72;;;36.08;;
45936;SDS011;31649;46.510;6.498;2023-04-03T06:09:29;202.32;;;83.47;;
45936;SDS011;31649;46.510;6.498;2023-04-03T06:11:55;173.02;;;84.13;;
45936;SDS011;31649;46.510;6.498;2023-04-03T06:14:23;309.20;;;149.48;;
45936;SDS011;31649;46.510;6.498;2023-04-03T06:16:52;320.88;;;178.45;;
45936;SDS011;31649;46.510;6.498;2023-04-03T06:19:19;312.60;;;176.52;;
45936;SDS011;31649;46.510;6.498;2023-04-03T06:21:45;297.95;;;161.35;;
45936;SDS011;31649;46.510;6.498;2023-04-03T06:24:12;266.65;;;141.68;;
45936;SDS011;31649;46.510;6.498;2023-04-03T06:26:40;253.43;;;138.48;;
45936;SDS011;31649;46.510;6.498;2023-04-03T06:29:06;210.57;;;118.13;;
45936;SDS011;31649;46.510;6.498;2023-04-03T06:31:32;214.95;;;101.45;;
45936;SDS011;31649;46.510;6.498;2023-04-03T06:33:57;182.63;;;87.50;;
45936;SDS011;31649;46.510;6.498;2023-04-03T06:36:23;161.98;;;80.63;;
45936;SDS011;31649;46.510;6.498;2023-04-03T06:38:49;143.57;;;71.95;;
45936;SDS011;31649;46.510;6.498;2023-04-03T06:41:14;124.85;;;65.63;;
45936;SDS011;31649;46.510;6.498;2023-04-03T06:43:41;110.05;;;52.03;;
45936;SDS011;31649;46.510;6.498;2023-04-03T06:46:12;125.22;;;50.78;;
45936;SDS011;31649;46.510;6.498;2023-04-03T06:48:41;119.50;;;46.08;;
45936;SDS011;31649;46.510;6.498;2023-04-03T06:51:11;119.20;;;41.75;;
45936;SDS011;31649;46.510;6.498;2023-04-03T06:53:45;87.30;;;38.42;;
45936;SDS011;31649;46.510;6.498;2023-04-03T06:56:11;89.18;;;34.55;;
45936;SDS011;31649;46.510;6.498;2023-04-03T06:58:37;84.68;;;31.77;;
45936;SDS011;31649;46.510;6.498;2023-04-03T07:01:03;85.70;;;29.23;;
45936;SDS011;31649;46.510;6.498;2023-04-03T07:03:28;96.20;;;26.27;;
45936;SDS011;31649;46.510;6.498;2023-04-03T07:05:54;64.32;;;23.10;;
45936;SDS011;31649;46.510;6.498;2023-04-03T07:08:20;76.70;;;20.88;;
45936;SDS011;31649;46.510;6.498;2023-04-03T07:10:47;68.28;;;20.52;;
45936;SDS011;31649;46.510;6.498;2023-04-03T07:13:13;55.35;;;19.65;;
45936;SDS011;31649;46.510;6.498;2023-04-03T07:15:39;48.40;;;18.75;;
45936;SDS011;31649;46.510;6.498;2023-04-03T07:18:05;65.75;;;17.27;;
45936;SDS011;31649;46.510;6.498;2023-04-03T07:20:31;55.42;;;16.27;;
45936;SDS011;31649;46.510;6.498;2023-04-03T07:22:56;39.65;;;15.40;;
45936;SDS011;31649;46.510;6.498;2023-04-03T07:25:22;46.92;;;16.05;;
45936;SDS011;31649;46.510;6.498;2023-04-03T07:27:48;52.25;;;15.07;;
45936;SDS011;31649;46.510;6.498;2023-04-03T07:30:14;47.30;;;16.95;;
45936;SDS011;31649;46.510;6.498;2023-04-03T07:32:40;43.75;;;13.07;;
45936;SDS011;31649;46.510;6.498;2023-04-03T07:35:06;37.88;;;12.00;;
45936;SDS011;31649;46.510;6.498;2023-04-03T07:37:32;38.38;;;10.35;;
45936;SDS011;31649;46.510;6.498;2023-04-03T07:39:57;26.42;;;9.07;;
45936;SDS011;31649;46.510;6.498;2023-04-03T07:42:24;26.90;;;9.50;;
45936;SDS011;31649;46.510;6.498;2023-04-03T07:44:52;49.33;;;8.55;;
45936;SDS011;31649;46.510;6.498;2023-04-03T07:47:18;21.48;;;7.90;;
45936;SDS011;31649;46.510;6.498;2023-04-03T07:49:45;95.18;;;9.52;;
45936;SDS011;31649;46.510;6.498;2023-04-03T07:52:11;129.88;;;10.10;;
45936;SDS011;31649;46.510;6.498;2023-04-03T07:54:36;103.13;;;10.00;;
45936;SDS011;31649;46.510;6.498;2023-04-03T07:57:02;59.75;;;8.77;;
45936;SDS011;31649;46.510;6.498;2023-04-03T07:59:28;52.75;;;7.03;;
45936;SDS011;31649;46.510;6.498;2023-04-03T08:01:54;119.35;;;9.68;;
45936;SDS011;31649;46.510;6.498;2023-04-03T08:04:19;125.15;;;9.82;;
45936;SDS011;31649;46.510;6.498;2023-04-03T08:06:45;126.60;;;8.70;;
45936;SDS011;31649;46.510;6.498;2023-04-03T08:09:10;176.50;;;13.20;;
45936;SDS011;31649;46.510;6.498;2023-04-03T08:11:38;160.60;;;11.27;;
45936;SDS011;31649;46.510;6.498;2023-04-03T08:14:04;132.18;;;12.27;;
45936;SDS011;31649;46.510;6.498;2023-04-03T08:16:30;104.57;;;7.97;;
45936;SDS011;31649;46.510;6.498;2023-04-03T08:18:56;101.75;;;8.65;;
45936;SDS011;31649;46.510;6.498;2023-04-03T08:21:21;85.82;;;10.10;;
45936;SDS011;31649;46.510;6.498;2023-04-03T08:23:48;226.52;;;13.73;;
45936;SDS011;31649;46.510;6.498;2023-04-03T08:26:18;218.32;;;10.75;;
45936;SDS011;31649;46.510;6.498;2023-04-03T08:28:47;140.63;;;9.35;;
45936;SDS011;31649;46.510;6.498;2023-04-03T08:31:14;112.75;;;7.60;;
45936;SDS011;31649;46.510;6.498;2023-04-03T08:33:43;90.30;;;6.72;;
45936;SDS011;31649;46.510;6.498;2023-04-03T08:36:16;59.53;;;6.95;;
45936;SDS011;31649;46.510;6.498;2023-04-03T08:38:52;67.97;;;8.52;;
45936;SDS011;31649;46.510;6.498;2023-04-03T08:43:58;43.53;;;5.95;;
45936;SDS011;31649;46.510;6.498;2023-04-03T08:49:11;105.10;;;19.42;;
45936;SDS011;31649;46.510;6.498;2023-04-03T08:51:48;33.55;;;5.63;;
45936;SDS011;31649;46.510;6.498;2023-04-03T08:54:24;147.02;;;15.63;;
45936;SDS011;31649;46.510;6.498;2023-04-03T08:56:58;55.97;;;12.98;;
45936;SDS011;31649;46.510;6.498;2023-04-03T08:59:28;52.13;;;13.15;;
45936;SDS011;31649;46.510;6.498;2023-04-03T09:01:57;27.42;;;6.20;;
45936;SDS011;31649;46.510;6.498;2023-04-03T09:04:27;31.50;;;8.88;;
45936;SDS011;31649;46.510;6.498;2023-04-03T09:07:02;23.40;;;6.03;;
45936;SDS011;31649;46.510;6.498;2023-04-03T09:09:40;8.55;;;5.15;;
45936;SDS011;31649;46.510;6.498;2023-04-03T09:12:18;20.45;;;5.18;;
45936;SDS011;31649;46.510;6.498;2023-04-03T09:23:32;6.25;;;3.05;;
45936;SDS011;31649;46.510;6.498;2023-04-03T09:26:05;6.55;;;3.05;;
45936;SDS011;31649;46.510;6.498;2023-04-03T09:28:37;6.28;;;2.80;;
45936;SDS011;31649;46.510;6.498;2023-04-03T09:31:23;9.90;;;5.18;;
45936;SDS011;31649;46.510;6.498;2023-04-03T09:33:56;33.60;;;25.05;;
45936;SDS011;31649;46.510;6.498;2023-04-03T09:37:00;80.68;;;41.55;;
45936;SDS011;31649;46.510;6.498;2023-04-03T09:39:24;60.17;;;53.13;;
45936;SDS011;31649;46.510;6.498;2023-04-03T09:42:18;56.03;;;45.75;;
45936;SDS011;31649;46.510;6.498;2023-04-03T09:44:52;73.97;;;60.72;;
45936;SDS011;31649;46.510;6.498;2023-04-03T09:52:43;72.90;;;48.42;;
45936;SDS011;31649;46.510;6.498;2023-04-03T09:55:14;102.93;;;44.45;;
45936;SDS011;31649;46.510;6.498;2023-04-03T09:57:41;284.45;;;48.08;;
45936;SDS011;31649;46.510;6.498;2023-04-03T10:00:19;183.18;;;48.58;;
45936;SDS011;31649;46.510;6.498;2023-04-03T10:02:48;410.25;;;108.72;;
45936;SDS011;31649;46.510;6.498;2023-04-03T10:10:38;50.58;;;23.75;;
45936;SDS011;31649;46.510;6.498;2023-04-03T10:13:12;42.53;;;12.73;;
45936;SDS011;31649;46.510;6.498;2023-04-03T10:21:20;36.67;;;5.68;;
45936;SDS011;31649;46.510;6.498;2023-04-03T10:23:50;30.40;;;5.10;;
45936;SDS011;31649;46.510;6.498;2023-04-03T10:31:46;34.95;;;4.65;;
45936;SDS011;31649;46.510;6.498;2023-04-03T10:34:37;14.30;;;5.30;;
45936;SDS011;31649;46.510;6.498;2023-04-03T10:37:20;17.33;;;4.90;;
45936;SDS011;31649;46.510;6.498;2023-04-03T10:40:12;19.92;;;4.97;;
45936;SDS011;31649;46.510;6.498;2023-04-03T10:45:21;25.10;;;4.35;;
45936;SDS011;31649;46.510;6.498;2023-04-03T10:53:35;21.20;;;4.32;;
45936;SDS011;31649;46.510;6.498;2023-04-03T11:01:56;13.35;;;4.10;;
45936;SDS011;31649;46.510;6.498;2023-04-03T11:04:28;11.73;;;4.03;;
45936;SDS011;31649;46.510;6.498;2023-04-03T11:06:58;12.38;;;5.80;;
45936;SDS011;31649;46.510;6.498;2023-04-03T11:09:28;17.05;;;5.28;;
45936;SDS011;31649;46.510;6.498;2023-04-03T11:12:02;31.90;;;4.95;;
45936;SDS011;31649;46.510;6.498;2023-04-03T11:14:35;16.57;;;4.40;;
45936;SDS011;31649;46.510;6.498;2023-04-03T11:22:41;18.83;;;15.30;;
45936;SDS011;31649;46.510;6.498;2023-04-03T11:25:14;16.77;;;12.43;;
45936;SDS011;31649;46.510;6.498;2023-04-03T11:27:50;19.98;;;9.85;;
45936;SDS011;31649;46.510;6.498;2023-04-03T11:38:45;49.40;;;7.85;;
45936;SDS011;31649;46.510;6.498;2023-04-03T11:41:14;69.30;;;9.02;;
45936;SDS011;31649;46.510;6.498;2023-04-03T11:43:41;351.80;;;28.02;;
45936;SDS011;31649;46.510;6.498;2023-04-03T11:46:20;54.47;;;7.63;;
45936;SDS011;31649;46.510;6.498;2023-04-03T11:48:47;152.32;;;14.80;;
45936;SDS011;31649;46.510;6.498;2023-04-03T11:53:43;209.85;;;16.20;;
45936;SDS011;31649;46.510;6.498;2023-04-03T11:59:37;177.70;;;13.30;;
45936;SDS011;31649;46.510;6.498;2023-04-03T12:01:52;117.88;;;9.88;;
45936;SDS011;31649;46.510;6.498;2023-04-03T12:04:20;85.63;;;7.78;;
45936;SDS011;31649;46.510;6.498;2023-04-03T12:09:24;72.15;;;8.15;;
45936;SDS011;31649;46.510;6.498;2023-04-03T12:11:53;90.15;;;7.93;;
45936;SDS011;31649;46.510;6.498;2023-04-03T12:14:22;64.18;;;5.70;;
45936;SDS011;31649;46.510;6.498;2023-04-03T12:16:50;32.80;;;4.40;;
45936;SDS011;31649;46.510;6.498;2023-04-03T12:19:32;52.30;;;5.45;;
45936;SDS011;31649;46.510;6.498;2023-04-03T12:24:34;128.85;;;10.63;;
45936;SDS011;31649;46.510;6.498;2023-04-03T12:27:02;95.47;;;8.55;;
45936;SDS011;31649;46.510;6.498;2023-04-03T12:29:36;67.80;;;6.30;;
45936;SDS011;31649;46.510;6.498;2023-04-03T12:48:50;70.97;;;6.80;;
45936;SDS011;31649;46.510;6.498;2023-04-03T12:51:43;36.00;;;4.43;;
45936;SDS011;31649;46.510;6.498;2023-04-03T12:54:29;96.32;;;7.60;;
45936;SDS011;31649;46.510;6.498;2023-04-03T12:59:48;129.97;;;9.17;;
